Time;durP1;ratioP1;P1;durP2;ratioP2;P2;SDS_P1;SDS_P2;PMS_P1;PMS_P2;Temp;Humidity;BMP_temperature;BMP_pressure;BME280_temperature;BME280_humidity;BME280_pressure;Samples;Min_cycle;Max_cycle;Signal;HPM_P1;HPM_P2
2022/08/20 00:00:31;;;;;;;13.10;11.52;;;;;;;20.90;77.29;101472.72;6212721;23;20005;-59
2022/08/20 00:03:00;;;;;;;14.10;12.52;;;;;;;20.89;77.27;101470.22;6213808;23;20009;-59
2022/08/20 00:05:31;;;;;;;14.65;11.27;;;;;;;20.88;77.51;101469.38;6213644;23;20001;-59
2022/08/20 00:07:57;;;;;;;17.13;13.30;;;;;;;20.86;77.29;101462.38;6213502;23;20102;-59
2022/08/20 00:10:24;;;;;;;13.05;11.55;;;;;;;20.81;77.33;101461.31;6213583;23;20008;-59
2022/08/20 00:12:51;;;;;;;13.10;11.65;;;;;;;20.88;77.41;101457.28;6213897;23;20087;-59
2022/08/20 00:15:20;;;;;;;14.20;12.25;;;;;;;20.83;77.22;101456.22;6215909;23;20005;-59
2022/08/20 00:17:49;;;;;;;12.95;11.52;;;;;;;20.89;76.91;101454.13;6215667;23;20009;-59
2022/08/20 00:20:16;;;;;;;12.20;10.98;;;;;;;20.90;77.18;101450.16;6214764;23;20012;-59
2022/08/20 00:22:42;;;;;;;13.95;11.48;;;;;;;20.90;77.38;101449.31;6215939;23;20063;-59
2022/08/20 00:25:09;;;;;;;14.30;11.20;;;;;;;20.87;77.41;101449.91;6215651;23;20440;-60
2022/08/20 00:27:34;;;;;;;15.27;12.25;;;;;;;20.90;77.22;101447.31;6215287;23;20326;-60
2022/08/20 00:30:01;;;;;;;14.30;12.50;;;;;;;20.84;77.70;101459.88;6215522;23;20011;-60
2022/08/20 00:32:26;;;;;;;14.57;11.63;;;;;;;20.86;77.74;101456.72;6215876;23;20000;-60
2022/08/20 00:34:52;;;;;;;14.32;11.68;;;;;;;20.86;77.48;101466.03;6214893;23;20013;-59
2022/08/20 00:37:17;;;;;;;12.30;11.05;;;;;;;20.86;77.41;101462.38;6215926;23;20012;-59
2022/08/20 00:39:42;;;;;;;13.23;11.23;;;;;;;20.85;77.49;101455.88;6214234;23;20356;-60
2022/08/20 00:42:08;;;;;;;12.98;11.50;;;;;;;20.79;77.75;101449.50;6214366;23;20008;-59
2022/08/20 00:44:34;;;;;;;12.40;11.07;;;;;;;20.83;77.48;101455.38;6215678;23;20008;-59
2022/08/20 00:47:05;;;;;;;11.73;10.45;;;;;;;20.84;77.34;101452.22;6215677;23;20036;-60
2022/08/20 00:49:31;;;;;;;14.48;11.77;;;;;;;20.80;77.45;101456.81;6215109;23;20004;-59
2022/08/20 00:52:18;;;;;;;15.05;10.93;;;;;;;20.86;77.30;101453.91;6215422;23;20310;-60
2022/08/20 00:54:54;;;;;;;12.73;11.40;;;;;;;20.80;77.58;101451.16;6214896;23;20080;-59
2022/08/20 00:57:31;;;;;;;11.50;10.30;;;;;;;20.80;77.72;101451.16;6215875;23;20000;-60
2022/08/20 00:59:58;;;;;;;11.88;10.65;;;;;;;20.79;77.70;101465.59;6215391;23;20100;-60
2022/08/20 01:02:26;;;;;;;12.57;10.25;;;;;;;20.77;77.95;101457.44;6215264;23;20088;-60
2022/08/20 01:04:55;;;;;;;12.40;11.13;;;;;;;20.74;78.01;101458.03;6215342;23;20008;-60
2022/08/20 01:07:33;;;;;;;13.80;11.63;;;;;;;20.74;77.75;101458.03;6215677;23;20004;-58
2022/08/20 01:10:07;;;;;;;12.63;10.68;;;;;;;20.76;77.80;101454.91;6215019;23;20054;-58
2022/08/20 01:12:33;;;;;;;14.07;11.30;;;;;;;20.74;77.64;101452.38;6215316;23;20009;-60
2022/08/20 01:15:01;;;;;;;19.13;11.05;;;;;;;20.75;77.71;101456.91;6214060;23;20015;-60
2022/08/20 01:17:31;;;;;;;13.02;10.90;;;;;;;20.72;77.71;101457.53;6214902;23;20005;-60
2022/08/20 01:20:15;;;;;;;12.73;11.32;;;;;;;20.77;77.24;101448.97;6214932;23;20499;-60
2022/08/20 01:25:54;;;;;;;15.65;12.15;;;;;;;20.72;77.50;101454.69;6214866;23;20074;-60
2022/08/20 01:28:32;;;;;;;13.90;11.77;;;;;;;20.81;77.06;101461.31;6214831;23;20336;-59
2022/08/20 01:30:57;;;;;;;15.23;12.60;;;;;;;20.75;77.42;101458.88;6213401;23;20490;-60
2022/08/20 01:33:23;;;;;;;14.07;12.05;;;;;;;20.74;77.50;101458.03;6214653;23;20008;-60
2022/08/20 01:35:51;;;;;;;17.23;13.25;;;;;;;20.74;77.53;101458.03;6215240;23;20019;-60
2022/08/20 01:38:16;;;;;;;16.10;13.10;;;;;;;20.72;77.40;101454.69;6213574;23;20387;-60
2022/08/20 01:41:02;;;;;;;14.57;12.85;;;;;;;20.72;77.42;101460.34;6214360;23;20364;-59
2022/08/20 01:43:28;;;;;;;14.23;12.73;;;;;;;20.68;77.39;101449.97;6215188;23;20005;-59
2022/08/20 01:45:53;;;;;;;18.45;12.98;;;;;;;20.69;77.53;101448.81;6213736;23;20005;-58
2022/08/20 01:48:20;;;;;;;16.95;13.77;;;;;;;20.66;77.66;101458.72;6214456;23;20008;-59
2022/08/20 01:50:54;;;;;;;19.65;13.88;;;;;;;20.65;77.75;101456.22;6214892;23;20000;-60
2022/08/20 01:53:27;;;;;;;17.05;14.27;;;;;;;20.66;77.71;101460.72;6214545;23;20013;-60
2022/08/20 01:55:52;;;;;;;17.25;14.02;;;;;;;20.65;77.86;101459.88;6215086;23;20004;-60
2022/08/20 01:58:18;;;;;;;18.30;13.93;;;;;;;20.62;77.71;101459.66;6214315;23;20000;-60
2022/08/20 02:00:43;;;;;;;15.10;13.48;;;;;;;20.67;77.45;101453.91;6214091;23;20329;-60
2022/08/20 02:03:08;;;;;;;15.07;13.35;;;;;;;20.61;77.29;101458.81;6215084;23;20004;-60
2022/08/20 02:05:34;;;;;;;18.25;13.98;;;;;;;20.59;77.53;101459.13;6213660;23;20016;-60
2022/08/20 02:08:00;;;;;;;17.52;14.18;;;;;;;20.60;77.35;101457.16;6214883;23;20016;-59
2022/08/20 02:10:30;;;;;;;18.27;13.40;;;;;;;20.64;77.36;101461.03;6214495;23;20068;-59
2022/08/20 02:12:55;;;;;;;17.63;13.98;;;;;;;20.58;77.42;101465.91;6213806;23;20010;-59
2022/08/20 02:15:20;;;;;;;18.27;14.07;;;;;;;20.62;77.39;101459.66;6214316;23;20502;-60
2022/08/20 02:17:47;;;;;;;17.88;15.10;;;;;;;20.59;77.21;101461.97;6214815;23;20004;-60
2022/08/20 02:20:16;;;;;;;22.30;15.43;;;;;;;20.56;77.35;101464.56;6213093;23;20119;-60
2022/08/20 02:22:57;;;;;;;20.80;15.75;;;;;;;20.57;77.51;101475.50;6214289;23;20337;-60
2022/08/20 02:25:25;;;;;;;18.67;15.82;;;;;;;20.53;77.31;101477.28;6214715;23;20090;-59
2022/08/20 02:27:52;;;;;;;20.65;15.77;;;;;;;20.56;77.24;101470.19;6213223;23;20005;-59
2022/08/20 02:30:28;;;;;;;21.65;16.30;;;;;;;20.51;77.49;101470.25;6213912;23;20023;-59
2022/08/20 02:32:57;;;;;;;20.75;15.43;;;;;;;20.50;77.24;101469.41;6214797;23;20009;-59
2022/08/20 02:35:23;;;;;;;20.48;15.38;;;;;;;20.50;77.36;101469.41;6213745;23;20036;-60
2022/08/20 02:37:49;;;;;;;22.00;15.65;;;;;;;20.52;77.20;101466.31;6214339;23;20001;-60
2022/08/20 02:40:17;;;;;;;22.40;15.63;;;;;;;20.46;77.46;101467.47;6213556;23;20028;-60
2022/08/20 02:42:42;;;;;;;18.70;14.77;;;;;;;20.48;77.52;101466.03;6213885;23;20005;-59
2022/08/20 02:45:13;;;;;;;22.65;14.98;;;;;;;20.43;77.50;101459.63;6213909;23;20009;-60
2022/08/20 02:47:39;;;;;;;22.00;14.65;;;;;;;20.49;77.31;101472.53;6213396;23;20046;-58
2022/08/20 02:50:06;;;;;;;21.65;14.23;;;;;;;20.47;77.14;101480.44;6213396;23;20012;-58
2022/08/20 02:52:31;;;;;;;18.85;14.45;;;;;;;20.50;76.91;101482.69;6214387;23;20009;-58
2022/08/20 02:54:57;;;;;;;18.83;14.27;;;;;;;20.45;76.72;101477.94;6213804;23;20027;-58
2022/08/20 02:57:22;;;;;;;22.95;15.13;;;;;;;20.42;76.84;101472.06;6214172;23;20070;-58
2022/08/20 02:59:50;;;;;;;22.23;14.80;;;;;;;20.42;76.83;101472.88;6214063;23;20009;-59
2022/08/20 03:02:16;;;;;;;24.27;16.00;;;;;;;20.43;76.93;101474.56;6213578;23;20437;-59
2022/08/20 03:04:41;;;;;;;22.92;16.83;;;;;;;20.35;76.87;101473.25;6213647;23;20111;-59
2022/08/20 03:07:09;;;;;;;26.80;17.73;;;;;;;20.40;76.77;101471.53;6214336;23;20095;-59
2022/08/20 03:09:35;;;;;;;28.63;18.63;;;;;;;20.40;76.85;101475.19;6213854;23;20024;-59
2022/08/20 03:12:01;;;;;;;25.88;19.65;;;;;;;20.38;76.86;101479.44;6214645;23;20009;-59
2022/08/20 03:14:27;;;;;;;24.63;19.35;;;;;;;20.33;76.78;101474.72;6214079;23;20012;-59
2022/08/20 03:16:52;;;;;;;26.40;20.40;;;;;;;20.32;76.98;101476.72;6213762;23;20007;-58
2022/08/20 03:19:18;;;;;;;29.23;21.67;;;;;;;20.32;77.07;101475.88;6214022;23;20333;-59
2022/08/20 03:21:43;;;;;;;29.33;21.17;;;;;;;20.35;77.02;101478.91;6213177;23;20009;-60
2022/08/20 03:24:09;;;;;;;24.10;20.92;;;;;;;20.37;76.56;101480.59;6212711;23;20001;-59
2022/08/20 03:26:34;;;;;;;26.60;21.15;;;;;;;20.35;76.12;101478.06;6214055;23;20004;-59
2022/08/20 03:29:00;;;;;;;28.80;23.85;;;;;;;20.30;76.11;101476.16;6212838;23;20005;-59
2022/08/20 03:31:25;;;;;;;28.85;23.50;;;;;;;20.30;76.12;101486.59;6213052;23;20028;-59
2022/08/20 03:33:50;;;;;;;27.67;22.55;;;;;;;20.24;76.13;101482.16;6213930;23;20039;-59
2022/08/20 03:36:16;;;;;;;27.35;21.80;;;;;;;20.31;75.94;101486.28;6213495;23;20033;-59
2022/08/20 03:38:41;;;;;;;26.45;22.65;;;;;;;20.21;75.80;101488.44;6211771;23;20071;-59
2022/08/20 03:41:06;;;;;;;28.30;21.90;;;;;;;20.28;75.84;101481.28;6213973;23;20008;-59
2022/08/20 03:43:32;;;;;;;24.75;20.92;;;;;;;20.25;75.33;101492.31;6213023;23;20020;-59
2022/08/20 03:45:57;;;;;;;27.65;20.65;;;;;;;20.22;75.47;101490.09;6213765;23;20004;-59
2022/08/20 03:48:26;;;;;;;27.67;19.58;;;;;;;20.20;75.33;101495.19;6213530;23;20055;-59
2022/08/20 03:50:51;;;;;;;28.88;20.35;;;;;;;20.15;75.56;101493.28;6212954;23;20062;-59
2022/08/20 03:53:17;;;;;;;29.33;19.45;;;;;;;20.15;75.29;101498.91;6213164;23;20005;-59
2022/08/20 03:55:46;;;;;;;25.95;18.77;;;;;;;20.16;75.35;101492.16;6213256;23;20013;-59
2022/08/20 03:58:12;;;;;;;26.40;18.25;;;;;;;20.16;75.01;101494.97;6212980;23;20079;-59
2022/08/20 04:00:42;;;;;;;32.53;18.52;;;;;;;20.09;75.36;101492.53;6213061;23;20009;-59
2022/08/20 04:03:08;;;;;;;26.55;16.95;;;;;;;20.05;74.94;101496.25;6213296;23;20040;-59
2022/08/20 04:05:39;;;;;;;31.30;17.58;;;;;;;20.02;75.03;101494.88;6212306;23;20035;-58
2022/08/20 04:08:07;;;;;;;25.60;17.08;;;;;;;20.02;75.04;101496.84;6213536;23;20032;-58
2022/08/20 04:10:33;;;;;;;24.40;17.27;;;;;;;20.06;74.97;101492.28;6213279;23;20058;-59
2022/08/20 04:12:59;;;;;;;24.60;17.10;;;;;;;20.01;74.75;101498.81;6212423;23;20087;-59
2022/08/20 04:15:25;;;;;;;25.90;16.90;;;;;;;19.99;75.03;101508.72;6213225;23;20421;-59
2022/08/20 04:17:52;;;;;;;27.33;16.88;;;;;;;20.03;74.85;101501.34;6213281;23;20005;-59
2022/08/20 04:20:22;;;;;;;27.42;17.38;;;;;;;19.95;74.96;101508.47;6212773;23;20036;-60
2022/08/20 04:22:49;;;;;;;29.95;17.23;;;;;;;19.97;74.65;101505.38;6213809;23;20005;-59
2022/08/20 04:25:15;;;;;;;26.33;17.70;;;;;;;19.96;74.63;101509.31;6213662;23;20008;-59
2022/08/20 04:27:41;;;;;;;28.50;19.05;;;;;;;19.94;74.43;101511.59;6212738;23;20008;-59
2022/08/20 04:30:09;;;;;;;28.20;19.98;;;;;;;19.94;74.29;101512.44;6214147;23;20037;-59
2022/08/20 04:32:36;;;;;;;28.33;20.30;;;;;;;19.95;74.48;101518.91;6213295;23;20011;-59
2022/08/20 04:35:06;;;;;;;30.50;20.70;;;;;;;19.88;74.73;101524.06;6213941;23;20053;-59
2022/08/20 04:37:32;;;;;;;30.33;21.83;;;;;;;19.89;74.77;101523.78;6211604;23;20005;-59
2022/08/20 04:42:47;;;;;;;28.83;23.27;;;;;;;19.90;74.63;101521.78;6213324;23;20344;-59
2022/08/20 04:45:12;;;;;;;32.75;25.02;;;;;;;19.88;75.13;101535.31;6213757;23;20079;-60
2022/08/20 04:47:38;;;;;;;34.90;24.58;;;;;;;19.92;74.95;101531.59;6212735;23;20096;-59
2022/08/20 04:50:06;;;;;;;29.23;25.00;;;;;;;19.91;75.06;101531.91;6213481;23;20084;-59
2022/08/20 04:52:31;;;;;;;34.63;25.58;;;;;;;19.91;74.93;101535.56;6212999;23;20016;-59
2022/08/20 04:54:57;;;;;;;34.13;25.95;;;;;;;19.88;74.92;101538.97;6212571;23;20352;-59
2022/08/20 04:57:24;;;;;;;33.35;25.88;;;;;;;19.92;74.81;101540.06;6213988;23;20364;-59
2022/08/20 04:59:50;;;;;;;34.10;25.83;;;;;;;19.86;74.88;101542.09;6214451;23;20054;-59
2022/08/20 05:02:17;;;;;;;35.15;26.42;;;;;;;19.83;74.91;101544.69;6213655;23;20032;-59
2022/08/20 05:04:42;;;;;;;35.70;26.08;;;;;;;19.82;74.94;101548.63;6215547;23;20004;-59
2022/08/20 05:07:10;;;;;;;36.00;27.23;;;;;;;19.81;75.07;101552.59;6215199;23;20039;-59
2022/08/20 05:09:35;;;;;;;36.03;26.20;;;;;;;19.82;74.51;101551.47;6213634;23;20009;-59
2022/08/20 05:12:00;;;;;;;35.42;26.45;;;;;;;19.84;74.54;101552.81;6213988;23;20121;-58
2022/08/20 05:14:26;;;;;;;36.80;26.90;;;;;;;19.80;74.98;101554.56;6215427;23;20004;-58
2022/08/20 05:16:56;;;;;;;36.53;28.17;;;;;;;19.86;74.79;101549.72;6214114;23;20020;-59
2022/08/20 05:19:22;;;;;;;38.10;26.65;;;;;;;19.76;74.56;101552.63;6215282;23;20015;-59
2022/08/20 05:21:47;;;;;;;40.13;26.02;;;;;;;19.80;74.58;101557.38;6214189;23;20032;-59
2022/08/20 05:24:12;;;;;;;35.80;25.52;;;;;;;19.79;74.84;101550.06;6215116;23;20005;-60
2022/08/20 05:26:38;;;;;;;38.63;26.13;;;;;;;19.75;74.66;101560.25;6215869;23;20005;-59
2022/08/20 05:29:05;;;;;;;31.80;25.60;;;;;;;19.76;74.93;101555.47;6214273;23;20695;-59
2022/08/20 05:31:32;;;;;;;30.63;25.55;;;;;;;19.69;75.12;101561.47;6215101;23;20008;-59
2022/08/20 05:33:57;;;;;;;34.63;24.77;;;;;;;19.74;74.72;101557.75;6215265;23;20009;-60
2022/08/20 05:36:22;;;;;;;35.80;24.67;;;;;;;19.72;74.95;101563.66;6214284;23;20059;-59
2022/08/20 05:38:48;;;;;;;33.85;23.58;;;;;;;19.70;74.83;101565.13;6214178;23;20074;-59
2022/08/20 05:41:13;;;;;;;32.60;24.02;;;;;;;19.70;74.89;101571.59;6215317;23;20459;-59
2022/08/20 05:43:39;;;;;;;33.47;24.58;;;;;;;19.72;74.94;101572.09;6213854;23;20011;-59
2022/08/20 05:46:04;;;;;;;41.63;26.50;;;;;;;19.71;74.72;101576.06;6215248;23;20404;-59
2022/08/20 05:48:29;;;;;;;33.65;25.70;;;;;;;19.75;74.52;101571.53;6214561;23;20016;-59
2022/08/20 05:50:55;;;;;;;38.05;27.27;;;;;;;19.75;74.40;101577.16;6214293;23;20011;-59
2022/08/20 05:53:23;;;;;;;39.97;27.42;;;;;;;19.75;74.47;101573.50;6214917;23;20043;-59
2022/08/20 05:55:49;;;;;;;39.05;29.02;;;;;;;19.70;74.93;101579.19;6214576;23;20004;-59
2022/08/20 05:58:21;;;;;;;45.47;29.45;;;;;;;19.70;74.95;101568.75;6214180;23;20047;-59
2022/08/20 06:00:47;;;;;;;39.72;29.35;;;;;;;19.69;75.08;101581.19;6214678;23;20001;-60
2022/08/20 06:05:57;;;;;;;39.63;29.75;;;;;;;19.70;75.17;101577.22;6213364;23;20023;-59
2022/08/20 06:08:23;;;;;;;44.08;30.58;;;;;;;19.71;75.18;101587.34;6214930;23;20009;-59
2022/08/20 06:10:48;;;;;;;43.75;30.65;;;;;;;19.71;74.89;101587.34;6213194;23;20015;-59
2022/08/20 06:13:14;;;;;;;43.22;29.52;;;;;;;19.76;74.91;101587.28;6214082;23;20012;-58
2022/08/20 06:15:39;;;;;;;49.83;30.70;;;;;;;19.72;75.05;101586.19;6214813;23;20470;-59
2022/08/20 06:18:06;;;;;;;45.60;31.55;;;;;;;19.71;75.28;101580.88;6213634;23;20379;-59
2022/08/20 06:20:32;;;;;;;44.83;30.42;;;;;;;19.70;75.26;101590.47;6214771;23;20005;-59
2022/08/20 06:22:58;;;;;;;46.90;30.48;;;;;;;19.74;75.07;101586.75;6214716;23;20035;-59
2022/08/20 06:25:23;;;;;;;44.60;29.90;;;;;;;19.72;75.23;101580.56;6214522;23;20111;-60
2022/08/20 06:27:48;;;;;;;47.42;31.58;;;;;;;19.72;75.34;101583.38;6213510;23;20329;-59
2022/08/20 06:30:14;;;;;;;47.97;31.67;;;;;;;19.70;75.60;101574.41;6214057;23;20012;-59
2022/08/20 06:32:40;;;;;;;46.47;30.08;;;;;;;19.75;75.65;101584.78;6213833;23;20000;-59
2022/08/20 06:35:07;;;;;;;52.08;32.35;;;;;;;19.73;75.72;101578.56;6214625;23;20004;-59
2022/08/20 06:37:38;;;;;;;44.22;32.55;;;;;;;19.74;75.55;101581.13;6213953;23;20091;-59
2022/08/20 06:40:11;;;;;;;45.97;30.98;;;;;;;19.73;75.56;101579.44;6213530;23;20092;-59
2022/08/20 06:42:39;;;;;;;45.60;32.17;;;;;;;19.74;75.59;101581.13;6214018;23;20309;-60
2022/08/20 06:45:05;;;;;;;47.88;32.38;;;;;;;19.72;75.86;101589.00;6213644;23;20008;-60
2022/08/20 06:47:33;;;;;;;45.75;31.02;;;;;;;19.81;75.38;101594.84;6213720;23;20375;-60
2022/08/20 06:49:59;;;;;;;47.05;30.90;;;;;;;19.77;75.61;101593.78;6214548;23;20011;-60
2022/08/20 06:52:27;;;;;;;44.28;31.55;;;;;;;19.75;75.56;101590.41;6213841;23;20068;-60
2022/08/20 06:54:52;;;;;;;44.55;32.72;;;;;;;19.75;75.65;101593.22;6213501;23;20004;-60
2022/08/20 06:57:17;;;;;;;47.00;35.10;;;;;;;19.79;75.72;101592.31;6214357;23;20031;-57
2022/08/20 06:59:43;;;;;;;49.80;32.58;;;;;;;19.80;75.76;101585.53;6213222;23;20054;-60
2022/08/20 07:02:08;;;;;;;43.88;32.67;;;;;;;19.86;75.91;101590.00;6213577;23;20036;-60
2022/08/20 07:04:33;;;;;;;42.78;32.40;;;;;;;19.86;75.92;101591.97;6213649;23;20413;-60
2022/08/20 07:06:58;;;;;;;46.30;32.63;;;;;;;19.87;75.66;101599.28;6213828;23;20000;-60
2022/08/20 07:09:26;;;;;;;44.92;32.58;;;;;;;19.89;75.68;101593.38;6213474;23;20013;-60
2022/08/20 07:11:51;;;;;;;43.95;31.88;;;;;;;19.89;75.83;101596.19;6214034;23;20000;-60
2022/08/20 07:14:17;;;;;;;46.17;34.38;;;;;;;19.92;76.02;101598.38;6214057;23;20024;-60
2022/08/20 07:16:43;;;;;;;45.47;34.75;;;;;;;19.84;75.89;101603.53;6213392;23;20023;-60
2022/08/20 07:19:09;;;;;;;45.97;34.45;;;;;;;19.93;75.67;101602.91;6213935;23;20009;-59
2022/08/20 07:21:35;;;;;;;46.75;35.60;;;;;;;19.88;75.62;101597.31;6208931;23;20316;-59
2022/08/20 07:24:00;;;;;;;45.08;35.10;;;;;;;19.89;75.75;101604.66;6213613;23;20008;-59
2022/08/20 07:26:26;;;;;;;46.75;34.20;;;;;;;19.95;75.65;101612.72;6214265;23;20050;-59
2022/08/20 07:28:53;;;;;;;48.80;35.28;;;;;;;19.92;76.03;101618.09;6212986;23;20079;-59
2022/08/20 07:34:03;;;;;;;46.45;34.78;;;;;;;19.99;75.99;101615.78;6213367;23;20019;-59
2022/08/20 07:36:29;;;;;;;48.30;35.72;;;;;;;20.03;75.82;101617.72;6213126;23;20032;-59
2022/08/20 07:38:54;;;;;;;48.13;35.58;;;;;;;20.03;76.16;101617.72;6212260;23;20028;-59
2022/08/20 07:41:23;;;;;;;40.58;32.22;;;;;;;20.07;75.60;101618.78;6214067;23;20404;-59
2022/08/20 07:43:49;;;;;;;50.25;35.50;;;;;;;20.03;75.56;101623.34;6213093;23;20035;-59
2022/08/20 07:46:16;;;;;;;48.67;36.13;;;;;;;20.06;75.78;101627.56;6213080;23;20008;-59
2022/08/20 07:48:45;;;;;;;45.88;35.17;;;;;;;20.05;76.00;101642.78;6214518;23;20005;-59
2022/08/20 07:51:11;;;;;;;40.45;33.35;;;;;;;20.09;75.42;101629.78;6212996;23;20105;-59
2022/08/20 07:53:38;;;;;;;44.85;34.00;;;;;;;20.10;75.50;101640.75;6214103;23;20387;-60
2022/08/20 07:56:06;;;;;;;42.28;33.13;;;;;;;20.16;75.84;101650.00;6213213;23;20448;-59
2022/08/20 07:58:34;;;;;;;46.78;34.08;;;;;;;20.14;75.63;101641.00;6213274;23;20008;-59
2022/08/20 08:01:00;;;;;;;41.25;31.63;;;;;;;20.21;75.11;101649.09;6212722;23;20011;-59
2022/08/20 08:03:27;;;;;;;41.83;33.25;;;;;;;20.37;75.03;101646.94;6213512;23;20083;-59
2022/08/20 08:05:53;;;;;;;39.15;31.25;;;;;;;20.52;75.40;101647.63;6212868;23;20015;-59
2022/08/20 08:08:22;;;;;;;40.20;31.15;;;;;;;20.69;74.94;101652.78;6213361;23;20416;-59
2022/08/20 08:10:51;;;;;;;41.33;28.85;;;;;;;20.86;74.10;101663.53;6213070;23;20028;-59
2022/08/20 08:13:17;;;;;;;34.22;26.48;;;;;;;20.99;73.18;101648.69;6213944;23;20009;-59
2022/08/20 08:15:47;;;;;;;34.40;26.38;;;;;;;21.14;72.75;101650.44;6213875;23;20001;-59
2022/08/20 08:18:23;;;;;;;35.75;27.13;;;;;;;21.32;73.03;101652.44;6212839;23;20028;-59
2022/08/20 08:20:52;;;;;;;33.15;25.63;;;;;;;21.44;72.47;101656.78;6214299;23;20040;-59
2022/08/20 08:23:21;;;;;;;24.67;19.52;;;;;;;21.46;70.97;101661.00;6214403;23;20334;-60
2022/08/20 08:25:48;;;;;;;23.77;18.98;;;;;;;21.48;69.84;101660.69;6212989;23;20013;-59
2022/08/20 08:28:13;;;;;;;23.60;19.23;;;;;;;21.58;68.54;101662.53;6213996;23;20004;-59
2022/08/20 08:30:40;;;;;;;24.38;17.30;;;;;;;21.74;68.34;101661.09;6214128;23;20043;-59
2022/08/20 08:35:52;;;;;;;20.50;15.68;;;;;;;22.08;66.30;101648.59;6215340;23;20016;-59
2022/08/20 08:38:17;;;;;;;21.10;15.15;;;;;;;22.19;66.57;101645.31;6215692;23;20005;-60
2022/08/20 08:40:43;;;;;;;24.95;15.55;;;;;;;22.17;65.98;101658.09;6214585;23;20357;-59
2022/08/20 08:43:13;;;;;;;21.95;14.23;;;;;;;22.22;65.41;101660.81;6216008;23;20043;-59
2022/08/20 08:45:44;;;;;;;17.88;13.40;;;;;;;22.33;65.29;101665.13;6215316;23;20083;-60
2022/08/20 08:48:12;;;;;;;18.90;11.98;;;;;;;22.44;64.91;101660.09;6215691;23;20008;-60
2022/08/20 08:50:41;;;;;;;17.88;12.75;;;;;;;22.52;65.39;101665.03;6214816;23;20008;-60
2022/08/20 08:53:14;;;;;;;17.73;13.45;;;;;;;22.57;64.56;101678.25;6214399;23;20102;-59
2022/08/20 08:55:40;;;;;;;14.32;10.30;;;;;;;22.67;63.29;101673.19;6215687;23;20012;-60
2022/08/20 08:58:05;;;;;;;16.40;9.90;;;;;;;22.75;62.51;101669.66;6215282;23;20012;-60
2022/08/20 09:00:30;;;;;;;13.55;8.30;;;;;;;22.80;61.40;101668.69;6214382;23;20016;-60
2022/08/20 09:03:15;;;;;;;14.32;9.63;;;;;;;22.76;62.43;101674.13;6215715;23;20005;-60
2022/08/20 09:05:46;;;;;;;15.25;8.43;;;;;;;22.89;60.63;101682.94;6215278;23;20000;-60
2022/08/20 09:08:15;;;;;;;19.20;9.57;;;;;;;22.91;60.06;101669.31;6212486;23;20004;-59
2022/08/20 09:10:41;;;;;;;15.40;10.27;;;;;;;22.95;60.19;101670.34;6215108;23;20008;-59
2022/08/20 09:13:07;;;;;;;17.33;9.32;;;;;;;23.06;59.62;101668.97;6214833;23;20004;-60
2022/08/20 09:15:32;;;;;;;13.38;8.77;;;;;;;22.90;59.50;101679.78;6214602;23;20370;-60
2022/08/20 09:17:57;;;;;;;12.57;7.75;;;;;;;22.82;59.30;101672.03;6214525;23;20356;-60
2022/08/20 09:20:23;;;;;;;11.30;6.43;;;;;;;22.87;57.01;101671.94;6215207;23;20012;-60
2022/08/20 09:22:49;;;;;;;13.93;6.00;;;;;;;23.01;57.72;101674.75;6213712;23;20005;-60
2022/08/20 09:25:15;;;;;;;16.98;8.00;;;;;;;23.10;58.67;101674.84;6214841;23;20047;-60
2022/08/20 09:27:40;;;;;;;13.20;7.22;;;;;;;23.22;58.97;101675.97;6215423;23;20008;-60
2022/08/20 09:30:06;;;;;;;14.77;7.78;;;;;;;23.30;57.81;101670.69;6213933;23;20372;-60
2022/08/20 09:32:31;;;;;;;11.82;6.80;;;;;;;23.42;57.56;101677.50;6214249;23;20008;-59
2022/08/20 09:34:58;;;;;;;14.95;9.18;;;;;;;23.45;57.24;101671.16;6214542;23;20000;-59
2022/08/20 09:37:28;;;;;;;12.00;8.50;;;;;;;23.51;57.24;101663.41;6214400;23;20294;-59
2022/08/20 09:39:53;;;;;;;13.30;7.60;;;;;;;23.56;57.43;101671.75;6214480;23;20115;-59
2022/08/20 09:42:25;;;;;;;11.18;6.68;;;;;;;23.66;56.92;101662.22;6214133;23;20043;-60
2022/08/20 09:44:51;;;;;;;15.35;6.60;;;;;;;23.71;56.12;101668.56;6214928;23;20009;-60
2022/08/20 09:47:17;;;;;;;14.68;8.15;;;;;;;23.68;56.23;101659.88;6214958;23;20000;-60
2022/08/20 09:49:43;;;;;;;12.55;8.30;;;;;;;23.68;57.67;101657.88;6214209;23;20054;-59
2022/08/20 09:52:19;;;;;;;12.73;6.68;;;;;;;23.76;56.61;101667.59;6214770;23;20000;-59
2022/08/20 09:54:44;;;;;;;13.50;6.28;;;;;;;23.83;55.50;101668.00;6214657;23;20013;-59
2022/08/20 09:57:11;;;;;;;13.38;6.38;;;;;;;23.84;54.94;101666.81;6214129;23;20009;-59
2022/08/20 09:59:37;;;;;;;14.50;5.40;;;;;;;23.90;53.49;101671.22;6214720;23;20032;-59
2022/08/20 10:02:02;;;;;;;11.35;6.10;;;;;;;23.88;53.95;101667.00;6214517;23;20372;-59
2022/08/20 10:04:28;;;;;;;11.63;5.25;;;;;;;23.97;52.97;101673.56;6213960;23;20000;-59
2022/08/20 10:06:53;;;;;;;10.20;4.88;;;;;;;24.05;52.91;101671.94;6214973;23;20031;-59
2022/08/20 10:09:18;;;;;;;11.07;5.53;;;;;;;24.02;52.27;101667.78;6214642;23;20743;-60
2022/08/20 10:11:44;;;;;;;8.38;4.32;;;;;;;24.10;52.23;101669.00;6213928;23;20150;-60
2022/08/20 10:14:09;;;;;;;7.93;3.80;;;;;;;24.12;50.29;101661.81;6214770;23;20082;-59
2022/08/20 10:16:35;;;;;;;9.05;3.80;;;;;;;24.20;50.60;101663.84;6215275;23;20427;-59
2022/08/20 10:19:01;;;;;;;10.80;4.85;;;;;;;24.23;50.79;101665.22;6214012;23;20436;-60
2022/08/20 10:21:26;;;;;;;7.32;4.45;;;;;;;24.26;51.20;101670.25;6214200;23;20015;-60
2022/08/20 10:23:51;;;;;;;11.35;5.53;;;;;;;24.25;50.76;101663.75;6214494;23;20023;-60
2022/08/20 10:26:16;;;;;;;11.60;6.03;;;;;;;24.24;50.24;101659.19;6213837;23;20020;-60
2022/08/20 10:28:42;;;;;;;12.95;4.28;;;;;;;24.30;50.45;101662.75;6214847;23;20005;-60
2022/08/20 10:31:10;;;;;;;12.70;4.22;;;;;;;24.37;49.94;101662.28;6214263;23;20039;-60
2022/08/20 10:33:36;;;;;;;10.93;5.55;;;;;;;24.36;50.08;101666.28;6214115;23;20021;-60
2022/08/20 10:36:10;;;;;;;11.77;5.50;;;;;;;24.33;50.33;101661.28;6213556;23;20008;-60
2022/08/20 10:38:38;;;;;;;10.50;3.97;;;;;;;24.43;49.41;101661.00;6213527;23;20504;-60
2022/08/20 10:41:04;;;;;;;11.75;4.40;;;;;;;24.44;49.32;101668.34;6213302;23;20005;-60
2022/08/20 10:43:29;;;;;;;10.13;4.35;;;;;;;24.38;50.41;101661.13;6215066;23;20011;-60
2022/08/20 10:45:55;;;;;;;13.25;5.20;;;;;;;24.30;50.01;101668.44;6213794;23;20033;-60
2022/08/20 10:48:20;;;;;;;9.15;4.97;;;;;;;24.23;50.65;101662.38;6214164;23;20370;-60
2022/08/20 10:50:46;;;;;;;14.70;5.22;;;;;;;24.15;52.39;101663.16;6214348;23;20004;-60
2022/08/20 10:53:11;;;;;;;10.90;5.20;;;;;;;24.11;51.78;101673.50;6213969;23;20058;-60
2022/08/20 10:55:37;;;;;;;12.25;4.35;;;;;;;23.98;51.09;101669.59;6213907;23;20016;-60
2022/08/20 10:58:05;;;;;;;12.30;3.97;;;;;;;23.97;50.41;101670.72;6213687;23;20008;-60
2022/08/20 11:00:30;;;;;;;11.13;3.88;;;;;;;23.91;49.49;101672.03;6212310;23;20459;-59
2022/08/20 11:02:55;;;;;;;10.75;3.92;;;;;;;23.80;50.11;101671.47;6214704;23;20008;-59
2022/08/20 11:05:21;;;;;;;9.10;3.83;;;;;;;23.81;49.43;101672.28;6214134;23;20005;-59
2022/08/20 11:07:46;;;;;;;10.82;3.83;;;;;;;23.73;50.29;101680.41;6214021;23;20009;-60
2022/08/20 11:10:12;;;;;;;8.52;3.78;;;;;;;23.70;50.79;101675.41;6214287;23;20739;-60
2022/08/20 11:12:37;;;;;;;9.50;3.58;;;;;;;23.64;50.47;101672.97;6214729;23;20040;-60
2022/08/20 11:15:03;;;;;;;9.60;3.30;;;;;;;23.62;50.61;101670.50;6212585;23;20390;-60
2022/08/20 11:17:31;;;;;;;9.32;3.28;;;;;;;23.70;50.66;101671.75;6213994;23;20004;-60
2022/08/20 11:19:58;;;;;;;8.10;2.92;;;;;;;23.76;51.12;101671.28;6214512;23;20016;-60
2022/08/20 11:22:24;;;;;;;11.13;2.83;;;;;;;23.73;49.94;101666.25;6213470;23;20032;-60
2022/08/20 11:24:50;;;;;;;7.07;2.58;;;;;;;23.62;48.53;101667.66;6214050;23;19997;-59